sensor_id;sensor_type;location;lat;lon;timestamp;temperature;humidity
30304;DHT22;17112;48.636;10.152;2023-09-19T00:02:02;18.90;73.00
30304;DHT22;17112;48.636;10.152;2023-09-19T00:04:32;18.80;73.00
30304;DHT22;17112;48.636;10.152;2023-09-19T00:06:58;18.90;73.10
30304;DHT22;17112;48.636;10.152;2023-09-19T00:09:24;18.80;73.10
30304;DHT22;17112;48.636;10.152;2023-09-19T00:11:53;18.90;73.20
30304;DHT22;17112;48.636;10.152;2023-09-19T00:14:19;18.90;73.00
30304;DHT22;17112;48.636;10.152;2023-09-19T00:16:45;18.90;72.80
30304;DHT22;17112;48.636;10.152;2023-09-19T00:19:12;18.90;72.80
30304;DHT22;17112;48.636;10.152;2023-09-19T00:21:38;18.80;72.70
30304;DHT22;17112;48.636;10.152;2023-09-19T00:24:06;18.80;72.80
30304;DHT22;17112;48.636;10.152;2023-09-19T00:26:32;18.80;72.80
30304;DHT22;17112;48.636;10.152;2023-09-19T00:28:59;18.80;72.90
30304;DHT22;17112;48.636;10.152;2023-09-19T00:31:31;18.80;72.90
30304;DHT22;17112;48.636;10.152;2023-09-19T00:33:56;18.80;73.00
30304;DHT22;17112;48.636;10.152;2023-09-19T00:36:28;18.80;73.10
30304;DHT22;17112;48.636;10.152;2023-09-19T00:38:54;18.80;73.10
30304;DHT22;17112;48.636;10.152;2023-09-19T00:41:20;18.80;73.00
30304;DHT22;17112;48.636;10.152;2023-09-19T00:43:46;18.80;73.20
30304;DHT22;17112;48.636;10.152;2023-09-19T00:46:17;18.80;73.50
30304;DHT22;17112;48.636;10.152;2023-09-19T00:48:42;18.80;73.50
30304;DHT22;17112;48.636;10.152;2023-09-19T00:51:12;18.80;73.40
30304;DHT22;17112;48.636;10.152;2023-09-19T00:53:39;18.80;73.50
30304;DHT22;17112;48.636;10.152;2023-09-19T00:56:07;18.80;73.30
30304;DHT22;17112;48.636;10.152;2023-09-19T00:58:34;18.80;73.30
30304;DHT22;17112;48.636;10.152;2023-09-19T01:01:01;18.80;73.20
30304;DHT22;17112;48.636;10.152;2023-09-19T01:03:28;18.80;73.10
30304;DHT22;17112;48.636;10.152;2023-09-19T01:05:54;18.80;73.10
30304;DHT22;17112;48.636;10.152;2023-09-19T01:08:20;18.80;73.20
30304;DHT22;17112;48.636;10.152;2023-09-19T01:10:53;18.80;73.10
30304;DHT22;17112;48.636;10.152;2023-09-19T01:13:30;18.80;72.90
30304;DHT22;17112;48.636;10.152;2023-09-19T01:16:45;18.80;72.90
30304;DHT22;17112;48.636;10.152;2023-09-19T01:24:10;18.70;72.90
30304;DHT22;17112;48.636;10.152;2023-09-19T01:32:05;18.60;73.20
30304;DHT22;17112;48.636;10.152;2023-09-19T01:34:47;18.60;73.20
30304;DHT22;17112;48.636;10.152;2023-09-19T01:37:15;18.60;73.60
30304;DHT22;17112;48.636;10.152;2023-09-19T01:39:50;18.60;73.30
30304;DHT22;17112;48.636;10.152;2023-09-19T01:45:06;18.50;73.00
30304;DHT22;17112;48.636;10.152;2023-09-19T01:47:46;18.50;73.00
30304;DHT22;17112;48.636;10.152;2023-09-19T01:50:36;18.50;72.60
30304;DHT22;17112;48.636;10.152;2023-09-19T01:53:26;18.50;72.80
30304;DHT22;17112;48.636;10.152;2023-09-19T01:55:57;18.40;72.70
30304;DHT22;17112;48.636;10.152;2023-09-19T02:01:10;18.40;72.80
30304;DHT22;17112;48.636;10.152;2023-09-19T02:03:39;18.40;72.80
30304;DHT22;17112;48.636;10.152;2023-09-19T02:06:05;18.40;72.90
30304;DHT22;17112;48.636;10.152;2023-09-19T02:08:36;18.40;72.90
30304;DHT22;17112;48.636;10.152;2023-09-19T02:11:02;18.40;72.90
30304;DHT22;17112;48.636;10.152;2023-09-19T02:13:27;18.40;72.90
30304;DHT22;17112;48.636;10.152;2023-09-19T02:15:53;18.40;72.90
30304;DHT22;17112;48.636;10.152;2023-09-19T02:18:19;18.50;73.00
30304;DHT22;17112;48.636;10.152;2023-09-19T02:20:45;18.40;72.90
30304;DHT22;17112;48.636;10.152;2023-09-19T02:23:12;18.50;72.90
30304;DHT22;17112;48.636;10.152;2023-09-19T02:25:38;18.50;72.80
30304;DHT22;17112;48.636;10.152;2023-09-19T02:28:06;18.50;72.80
30304;DHT22;17112;48.636;10.152;2023-09-19T02:30:32;18.50;72.90
30304;DHT22;17112;48.636;10.152;2023-09-19T02:32:58;18.50;73.00
30304;DHT22;17112;48.636;10.152;2023-09-19T02:35:23;18.50;73.10
30304;DHT22;17112;48.636;10.152;2023-09-19T02:37:50;18.50;73.00
30304;DHT22;17112;48.636;10.152;2023-09-19T02:40:17;18.50;73.00
30304;DHT22;17112;48.636;10.152;2023-09-19T02:42:49;18.50;73.00
30304;DHT22;17112;48.636;10.152;2023-09-19T02:45:19;18.50;73.10
30304;DHT22;17112;48.636;10.152;2023-09-19T02:47:45;18.50;72.80
30304;DHT22;17112;48.636;10.152;2023-09-19T02:50:12;18.50;72.80
30304;DHT22;17112;48.636;10.152;2023-09-19T02:52:41;18.50;72.90
30304;DHT22;17112;48.636;10.152;2023-09-19T02:55:09;18.50;73.00
30304;DHT22;17112;48.636;10.152;2023-09-19T02:57:35;18.50;73.00
30304;DHT22;17112;48.636;10.152;2023-09-19T03:00:03;18.50;73.10
30304;DHT22;17112;48.636;10.152;2023-09-19T03:02:30;18.50;73.10
30304;DHT22;17112;48.636;10.152;2023-09-19T03:04:58;18.50;73.00
30304;DHT22;17112;48.636;10.152;2023-09-19T03:07:26;18.50;73.00
30304;DHT22;17112;48.636;10.152;2023-09-19T03:09:51;18.50;73.30
30304;DHT22;17112;48.636;10.152;2023-09-19T03:12:18;18.50;73.00
30304;DHT22;17112;48.636;10.152;2023-09-19T03:14:44;18.50;72.90
30304;DHT22;17112;48.636;10.152;2023-09-19T03:17:10;18.50;72.90
30304;DHT22;17112;48.636;10.152;2023-09-19T03:19:36;18.50;73.00
30304;DHT22;17112;48.636;10.152;2023-09-19T03:22:04;18.50;73.10
30304;DHT22;17112;48.636;10.152;2023-09-19T03:24:30;18.50;73.20
30304;DHT22;17112;48.636;10.152;2023-09-19T03:26:58;18.50;73.00
30304;DHT22;17112;48.636;10.152;2023-09-19T03:29:24;18.50;72.80
30304;DHT22;17112;48.636;10.152;2023-09-19T03:31:50;18.50;72.70
30304;DHT22;17112;48.636;10.152;2023-09-19T03:34:16;18.50;72.80
30304;DHT22;17112;48.636;10.152;2023-09-19T03:36:42;18.50;72.70
30304;DHT22;17112;48.636;10.152;2023-09-19T03:39:08;18.50;72.80
30304;DHT22;17112;48.636;10.152;2023-09-19T03:41:33;18.50;72.90
30304;DHT22;17112;48.636;10.152;2023-09-19T03:44:01;18.50;72.90
30304;DHT22;17112;48.636;10.152;2023-09-19T03:46:28;18.50;72.90
30304;DHT22;17112;48.636;10.152;2023-09-19T03:48:54;18.50;72.90
30304;DHT22;17112;48.636;10.152;2023-09-19T03:51:20;18.50;72.90
30304;DHT22;17112;48.636;10.152;2023-09-19T03:53:46;18.50;73.00
30304;DHT22;17112;48.636;10.152;2023-09-19T03:56:12;18.50;72.90
30304;DHT22;17112;48.636;10.152;2023-09-19T03:58:37;18.50;72.90
30304;DHT22;17112;48.636;10.152;2023-09-19T04:01:05;18.50;72.90
30304;DHT22;17112;48.636;10.152;2023-09-19T04:03:33;18.50;72.80
30304;DHT22;17112;48.636;10.152;2023-09-19T04:06:16;18.40;72.80
30304;DHT22;17112;48.636;10.152;2023-09-19T04:08:42;18.40;72.80
30304;DHT22;17112;48.636;10.152;2023-09-19T04:11:09;18.40;72.80
30304;DHT22;17112;48.636;10.152;2023-09-19T04:13:34;18.40;73.00
30304;DHT22;17112;48.636;10.152;2023-09-19T04:16:00;18.40;73.10
30304;DHT22;17112;48.636;10.152;2023-09-19T04:18:26;18.30;73.10
30304;DHT22;17112;48.636;10.152;2023-09-19T04:20:52;18.30;73.20
30304;DHT22;17112;48.636;10.152;2023-09-19T04:23:18;18.30;73.30
30304;DHT22;17112;48.636;10.152;2023-09-19T04:25:46;18.30;73.50
30304;DHT22;17112;48.636;10.152;2023-09-19T04:28:12;18.20;73.50
30304;DHT22;17112;48.636;10.152;2023-09-19T04:30:38;18.20;73.70
30304;DHT22;17112;48.636;10.152;2023-09-19T04:33:06;18.20;73.90
30304;DHT22;17112;48.636;10.152;2023-09-19T04:35:32;18.20;73.90
30304;DHT22;17112;48.636;10.152;2023-09-19T04:37:57;18.20;73.90
30304;DHT22;17112;48.636;10.152;2023-09-19T04:40:23;18.20;73.90
30304;DHT22;17112;48.636;10.152;2023-09-19T04:42:55;18.20;73.90
30304;DHT22;17112;48.636;10.152;2023-09-19T04:45:26;18.20;74.10
30304;DHT22;17112;48.636;10.152;2023-09-19T04:47:52;18.20;74.10
30304;DHT22;17112;48.636;10.152;2023-09-19T04:50:19;18.20;74.10
30304;DHT22;17112;48.636;10.152;2023-09-19T04:52:49;18.20;74.20
30304;DHT22;17112;48.636;10.152;2023-09-19T04:55:17;18.20;74.20
30304;DHT22;17112;48.636;10.152;2023-09-19T04:57:47;18.20;74.10
30304;DHT22;17112;48.636;10.152;2023-09-19T05:00:17;18.20;74.30
30304;DHT22;17112;48.636;10.152;2023-09-19T05:02:44;18.20;74.40
30304;DHT22;17112;48.636;10.152;2023-09-19T05:05:11;18.20;74.30
30304;DHT22;17112;48.636;10.152;2023-09-19T05:07:39;18.20;74.20
30304;DHT22;17112;48.636;10.152;2023-09-19T05:10:05;18.20;74.40
30304;DHT22;17112;48.636;10.152;2023-09-19T05:12:35;18.20;74.40
30304;DHT22;17112;48.636;10.152;2023-09-19T05:15:05;18.20;74.50
30304;DHT22;17112;48.636;10.152;2023-09-19T05:17:32;18.20;74.50
30304;DHT22;17112;48.636;10.152;2023-09-19T05:19:58;18.20;74.40
30304;DHT22;17112;48.636;10.152;2023-09-19T05:22:26;18.20;74.40
30304;DHT22;17112;48.636;10.152;2023-09-19T05:24:52;18.20;74.40
30304;DHT22;17112;48.636;10.152;2023-09-19T05:27:19;18.20;74.40
30304;DHT22;17112;48.636;10.152;2023-09-19T05:29:46;18.20;74.50
30304;DHT22;17112;48.636;10.152;2023-09-19T05:32:12;18.20;74.50
30304;DHT22;17112;48.636;10.152;2023-09-19T05:34:38;18.20;74.60
30304;DHT22;17112;48.636;10.152;2023-09-19T05:37:04;18.20;74.70
30304;DHT22;17112;48.636;10.152;2023-09-19T05:39:33;18.20;74.70
30304;DHT22;17112;48.636;10.152;2023-09-19T05:41:59;18.20;74.60
30304;DHT22;17112;48.636;10.152;2023-09-19T05:44:26;18.20;74.50
30304;DHT22;17112;48.636;10.152;2023-09-19T05:46:53;18.20;74.50
30304;DHT22;17112;48.636;10.152;2023-09-19T05:49:19;18.20;74.50
30304;DHT22;17112;48.636;10.152;2023-09-19T05:51:47;18.20;74.60
30304;DHT22;17112;48.636;10.152;2023-09-19T05:54:12;18.20;74.70
30304;DHT22;17112;48.636;10.152;2023-09-19T05:56:38;18.20;74.90
30304;DHT22;17112;48.636;10.152;2023-09-19T05:59:04;18.30;75.00
30304;DHT22;17112;48.636;10.152;2023-09-19T06:01:30;18.30;75.00
30304;DHT22;17112;48.636;10.152;2023-09-19T06:03:58;18.30;75.00
30304;DHT22;17112;48.636;10.152;2023-09-19T06:06:25;18.40;75.00
30304;DHT22;17112;48.636;10.152;2023-09-19T06:08:52;18.40;74.90
30304;DHT22;17112;48.636;10.152;2023-09-19T06:11:17;18.50;75.00
30304;DHT22;17112;48.636;10.152;2023-09-19T06:13:46;18.60;75.00
30304;DHT22;17112;48.636;10.152;2023-09-19T06:16:13;18.70;75.00
30304;DHT22;17112;48.636;10.152;2023-09-19T06:18:38;18.80;75.20
30304;DHT22;17112;48.636;10.152;2023-09-19T06:21:04;18.90;75.20
30304;DHT22;17112;48.636;10.152;2023-09-19T06:23:34;19.00;75.20
30304;DHT22;17112;48.636;10.152;2023-09-19T06:26:00;19.10;75.00
30304;DHT22;17112;48.636;10.152;2023-09-19T06:28:26;19.30;74.60
30304;DHT22;17112;48.636;10.152;2023-09-19T06:30:54;19.40;74.10
30304;DHT22;17112;48.636;10.152;2023-09-19T06:33:20;19.50;74.00
30304;DHT22;17112;48.636;10.152;2023-09-19T06:35:47;19.60;73.80
30304;DHT22;17112;48.636;10.152;2023-09-19T06:38:13;19.60;73.40
30304;DHT22;17112;48.636;10.152;2023-09-19T06:40:41;19.60;73.00
30304;DHT22;17112;48.636;10.152;2023-09-19T06:43:10;19.70;72.70
30304;DHT22;17112;48.636;10.152;2023-09-19T06:45:35;19.70;72.40
30304;DHT22;17112;48.636;10.152;2023-09-19T06:48:01;19.70;72.40
30304;DHT22;17112;48.636;10.152;2023-09-19T06:50:28;19.70;72.40
30304;DHT22;17112;48.636;10.152;2023-09-19T06:52:56;19.70;72.50
30304;DHT22;17112;48.636;10.152;2023-09-19T06:55:25;19.70;72.50
30304;DHT22;17112;48.636;10.152;2023-09-19T06:57:53;19.70;72.70
30304;DHT22;17112;48.636;10.152;2023-09-19T07:00:22;19.70;72.70
30304;DHT22;17112;48.636;10.152;2023-09-19T07:02:58;19.60;72.80
30304;DHT22;17112;48.636;10.152;2023-09-19T07:05:26;19.60;73.00
30304;DHT22;17112;48.636;10.152;2023-09-19T07:07:53;19.70;72.90
30304;DHT22;17112;48.636;10.152;2023-09-19T07:10:21;19.70;73.00
30304;DHT22;17112;48.636;10.152;2023-09-19T07:13:03;19.70;73.20
30304;DHT22;17112;48.636;10.152;2023-09-19T07:15:32;19.70;73.50
30304;DHT22;17112;48.636;10.152;2023-09-19T07:18:02;19.80;73.60
30304;DHT22;17112;48.636;10.152;2023-09-19T07:20:28;19.80;73.40
30304;DHT22;17112;48.636;10.152;2023-09-19T07:22:57;19.90;73.10
30304;DHT22;17112;48.636;10.152;2023-09-19T07:25:25;19.90;72.90
30304;DHT22;17112;48.636;10.152;2023-09-19T07:27:51;19.80;72.50
30304;DHT22;17112;48.636;10.152;2023-09-19T07:30:17;19.80;72.50
30304;DHT22;17112;48.636;10.152;2023-09-19T07:32:43;19.80;72.40
30304;DHT22;17112;48.636;10.152;2023-09-19T07:35:08;19.70;72.10
30304;DHT22;17112;48.636;10.152;2023-09-19T07:37:35;19.70;72.10
30304;DHT22;17112;48.636;10.152;2023-09-19T07:40:05;19.60;72.50
30304;DHT22;17112;48.636;10.152;2023-09-19T07:42:37;19.60;73.00
30304;DHT22;17112;48.636;10.152;2023-09-19T07:45:06;19.50;73.00
30304;DHT22;17112;48.636;10.152;2023-09-19T07:47:33;19.50;72.80
30304;DHT22;17112;48.636;10.152;2023-09-19T07:50:00;19.40;72.90
30304;DHT22;17112;48.636;10.152;2023-09-19T07:52:29;19.40;73.20
30304;DHT22;17112;48.636;10.152;2023-09-19T07:54:54;19.30;73.20
30304;DHT22;17112;48.636;10.152;2023-09-19T07:57:22;19.30;73.00
30304;DHT22;17112;48.636;10.152;2023-09-19T07:59:48;19.30;72.80
30304;DHT22;17112;48.636;10.152;2023-09-19T08:02:13;19.20;73.00
30304;DHT22;17112;48.636;10.152;2023-09-19T08:04:44;19.20;73.00
30304;DHT22;17112;48.636;10.152;2023-09-19T08:07:12;19.20;72.90
30304;DHT22;17112;48.636;10.152;2023-09-19T08:09:39;19.20;72.50
30304;DHT22;17112;48.636;10.152;2023-09-19T08:12:06;19.20;72.40
30304;DHT22;17112;48.636;10.152;2023-09-19T08:14:33;19.10;72.00
30304;DHT22;17112;48.636;10.152;2023-09-19T08:16:59;19.10;72.00
30304;DHT22;17112;48.636;10.152;2023-09-19T08:19:26;19.10;72.40
30304;DHT22;17112;48.636;10.152;2023-09-19T08:21:59;19.10;72.80
30304;DHT22;17112;48.636;10.152;2023-09-19T08:24:29;19.10;73.20
30304;DHT22;17112;48.636;10.152;2023-09-19T08:26:56;19.20;73.50
30304;DHT22;17112;48.636;10.152;2023-09-19T08:29:23;19.30;72.70
30304;DHT22;17112;48.636;10.152;2023-09-19T08:31:54;19.30;73.00
30304;DHT22;17112;48.636;10.152;2023-09-19T08:34:19;19.40;73.30
30304;DHT22;17112;48.636;10.152;2023-09-19T08:36:46;19.50;73.50
30304;DHT22;17112;48.636;10.152;2023-09-19T08:39:13;19.60;73.90
30304;DHT22;17112;48.636;10.152;2023-09-19T08:41:39;19.80;73.40
30304;DHT22;17112;48.636;10.152;2023-09-19T08:44:05;19.90;73.10
30304;DHT22;17112;48.636;10.152;2023-09-19T08:46:34;20.00;72.80
30304;DHT22;17112;48.636;10.152;2023-09-19T08:49:04;20.00;72.20
30304;DHT22;17112;48.636;10.152;2023-09-19T08:51:41;20.20;72.10
30304;DHT22;17112;48.636;10.152;2023-09-19T08:54:17;20.20;71.60
30304;DHT22;17112;48.636;10.152;2023-09-19T08:56:47;20.30;71.80
30304;DHT22;17112;48.636;10.152;2023-09-19T08:59:14;20.40;71.70
30304;DHT22;17112;48.636;10.152;2023-09-19T09:01:41;20.50;71.60
30304;DHT22;17112;48.636;10.152;2023-09-19T09:04:11;20.60;71.80
30304;DHT22;17112;48.636;10.152;2023-09-19T09:06:38;20.80;70.90
30304;DHT22;17112;48.636;10.152;2023-09-19T09:09:05;20.90;70.50
30304;DHT22;17112;48.636;10.152;2023-09-19T09:11:33;21.00;70.40
30304;DHT22;17112;48.636;10.152;2023-09-19T09:13:59;21.10;69.60
30304;DHT22;17112;48.636;10.152;2023-09-19T09:16:25;21.20;68.90
30304;DHT22;17112;48.636;10.152;2023-09-19T09:18:51;21.30;69.50
30304;DHT22;17112;48.636;10.152;2023-09-19T09:21:20;21.40;69.20
30304;DHT22;17112;48.636;10.152;2023-09-19T09:23:48;21.50;68.20
30304;DHT22;17112;48.636;10.152;2023-09-19T09:26:15;21.60;67.20
30304;DHT22;17112;48.636;10.152;2023-09-19T09:28:45;21.70;67.40
30304;DHT22;17112;48.636;10.152;2023-09-19T09:31:23;21.70;65.50
30304;DHT22;17112;48.636;10.152;2023-09-19T09:33:55;21.70;65.80
30304;DHT22;17112;48.636;10.152;2023-09-19T09:36:37;21.80;66.00
30304;DHT22;17112;48.636;10.152;2023-09-19T09:39:03;21.80;66.00
30304;DHT22;17112;48.636;10.152;2023-09-19T09:41:42;21.90;66.10
30304;DHT22;17112;48.636;10.152;2023-09-19T09:44:27;21.90;65.40
30304;DHT22;17112;48.636;10.152;2023-09-19T09:46:57;21.90;62.50
30304;DHT22;17112;48.636;10.152;2023-09-19T09:49:47;21.90;64.00
30304;DHT22;17112;48.636;10.152;2023-09-19T09:52:19;21.90;64.20
30304;DHT22;17112;48.636;10.152;2023-09-19T09:55:02;21.90;64.30
30304;DHT22;17112;48.636;10.152;2023-09-19T09:57:33;21.80;63.10
30304;DHT22;17112;48.636;10.152;2023-09-19T10:00:00;21.80;63.60
30304;DHT22;17112;48.636;10.152;2023-09-19T10:02:38;21.80;63.00
30304;DHT22;17112;48.636;10.152;2023-09-19T10:05:18;21.80;63.80
30304;DHT22;17112;48.636;10.152;2023-09-19T10:07:53;21.80;62.90
30304;DHT22;17112;48.636;10.152;2023-09-19T10:10:37;21.80;63.00
30304;DHT22;17112;48.636;10.152;2023-09-19T10:13:07;21.90;62.00
30304;DHT22;17112;48.636;10.152;2023-09-19T10:15:33;21.80;61.80
30304;DHT22;17112;48.636;10.152;2023-09-19T10:18:04;21.80;62.90
30304;DHT22;17112;48.636;10.152;2023-09-19T10:20:30;21.80;62.70
30304;DHT22;17112;48.636;10.152;2023-09-19T10:23:01;21.80;62.80
30304;DHT22;17112;48.636;10.152;2023-09-19T10:25:29;21.80;62.30
30304;DHT22;17112;48.636;10.152;2023-09-19T10:28:00;21.90;62.40
30304;DHT22;17112;48.636;10.152;2023-09-19T10:30:32;22.00;62.50
30304;DHT22;17112;48.636;10.152;2023-09-19T10:33:03;22.10;61.90
30304;DHT22;17112;48.636;10.152;2023-09-19T10:35:29;22.20;61.10
30304;DHT22;17112;48.636;10.152;2023-09-19T10:37:59;22.30;60.00
30304;DHT22;17112;48.636;10.152;2023-09-19T10:40:27;22.40;59.70
30304;DHT22;17112;48.636;10.152;2023-09-19T10:43:05;22.50;59.70
30304;DHT22;17112;48.636;10.152;2023-09-19T10:45:35;22.50;59.60
30304;DHT22;17112;48.636;10.152;2023-09-19T10:48:02;22.60;59.00
30304;DHT22;17112;48.636;10.152;2023-09-19T10:50:35;22.70;59.90
30304;DHT22;17112;48.636;10.152;2023-09-19T10:53:04;22.80;59.10
30304;DHT22;17112;48.636;10.152;2023-09-19T10:55:33;22.90;58.90
30304;DHT22;17112;48.636;10.152;2023-09-19T10:58:01;23.10;59.60
30304;DHT22;17112;48.636;10.152;2023-09-19T11:00:30;23.30;59.70
30304;DHT22;17112;48.636;10.152;2023-09-19T11:05:39;23.60;56.80
30304;DHT22;17112;48.636;10.152;2023-09-19T11:08:09;23.80;57.70
30304;DHT22;17112;48.636;10.152;2023-09-19T11:10:46;23.80;55.40
30304;DHT22;17112;48.636;10.152;2023-09-19T11:13:30;23.90;54.70
30304;DHT22;17112;48.636;10.152;2023-09-19T11:16:05;23.90;53.10
30304;DHT22;17112;48.636;10.152;2023-09-19T11:26:44;23.50;52.40
30304;DHT22;17112;48.636;10.152;2023-09-19T11:29:26;23.50;53.50
30304;DHT22;17112;48.636;10.152;2023-09-19T11:31:54;23.50;53.70
30304;DHT22;17112;48.636;10.152;2023-09-19T11:37:59;23.50;52.50
30304;DHT22;17112;48.636;10.152;2023-09-19T11:40:08;23.40;53.80
30304;DHT22;17112;48.636;10.152;2023-09-19T11:42:46;23.40;53.30
30304;DHT22;17112;48.636;10.152;2023-09-19T11:48:13;23.30;54.10
30304;DHT22;17112;48.636;10.152;2023-09-19T11:50:42;23.30;54.80
30304;DHT22;17112;48.636;10.152;2023-09-19T11:53:13;23.30;54.40
30304;DHT22;17112;48.636;10.152;2023-09-19T11:55:43;23.40;54.60
30304;DHT22;17112;48.636;10.152;2023-09-19T11:58:09;23.50;53.90
30304;DHT22;17112;48.636;10.152;2023-09-19T12:00:38;23.50;54.30
30304;DHT22;17112;48.636;10.152;2023-09-19T12:03:10;23.70;53.60
30304;DHT22;17112;48.636;10.152;2023-09-19T12:05:37;23.70;53.00
30304;DHT22;17112;48.636;10.152;2023-09-19T12:08:04;23.80;52.90
30304;DHT22;17112;48.636;10.152;2023-09-19T12:10:33;23.90;52.50
30304;DHT22;17112;48.636;10.152;2023-09-19T12:12:58;24.00;53.40
30304;DHT22;17112;48.636;10.152;2023-09-19T12:15:28;24.10;53.00
30304;DHT22;17112;48.636;10.152;2023-09-19T12:17:59;24.20;52.70
30304;DHT22;17112;48.636;10.152;2023-09-19T12:20:26;24.40;53.20
30304;DHT22;17112;48.636;10.152;2023-09-19T12:23:13;24.60;51.50
30304;DHT22;17112;48.636;10.152;2023-09-19T12:25:43;24.70;49.60
30304;DHT22;17112;48.636;10.152;2023-09-19T12:28:14;24.80;49.60
30304;DHT22;17112;48.636;10.152;2023-09-19T12:30:42;24.90;50.10
30304;DHT22;17112;48.636;10.152;2023-09-19T12:33:18;24.90;48.40
30304;DHT22;17112;48.636;10.152;2023-09-19T12:35:47;24.90;48.30
30304;DHT22;17112;48.636;10.152;2023-09-19T12:38:26;24.90;48.60
30304;DHT22;17112;48.636;10.152;2023-09-19T12:41:01;24.80;47.70
30304;DHT22;17112;48.636;10.152;2023-09-19T12:43:31;24.90;49.20
30304;DHT22;17112;48.636;10.152;2023-09-19T12:46:01;24.90;48.10
30304;DHT22;17112;48.636;10.152;2023-09-19T12:48:28;25.00;49.30
30304;DHT22;17112;48.636;10.152;2023-09-19T12:51:06;25.00;49.70
30304;DHT22;17112;48.636;10.152;2023-09-19T12:56:08;25.20;47.50
30304;DHT22;17112;48.636;10.152;2023-09-19T12:58:50;25.30;47.70
30304;DHT22;17112;48.636;10.152;2023-09-19T13:01:16;25.30;45.80
30304;DHT22;17112;48.636;10.152;2023-09-19T13:03:42;25.30;46.60
30304;DHT22;17112;48.636;10.152;2023-09-19T13:06:08;25.30;46.30
30304;DHT22;17112;48.636;10.152;2023-09-19T13:08:37;25.30;46.10
30304;DHT22;17112;48.636;10.152;2023-09-19T13:13:37;25.40;48.00
30304;DHT22;17112;48.636;10.152;2023-09-19T13:16:03;25.50;46.90
30304;DHT22;17112;48.636;10.152;2023-09-19T13:18:42;25.60;47.00
30304;DHT22;17112;48.636;10.152;2023-09-19T13:21:13;25.80;46.20
30304;DHT22;17112;48.636;10.152;2023-09-19T13:23:55;25.80;45.20
30304;DHT22;17112;48.636;10.152;2023-09-19T13:26:27;25.90;44.30
30304;DHT22;17112;48.636;10.152;2023-09-19T13:28:54;25.90;44.90
30304;DHT22;17112;48.636;10.152;2023-09-19T13:31:20;25.90;45.30
30304;DHT22;17112;48.636;10.152;2023-09-19T13:33:48;26.00;45.30
30304;DHT22;17112;48.636;10.152;2023-09-19T13:36:14;26.00;44.60
30304;DHT22;17112;48.636;10.152;2023-09-19T13:38:43;26.10;45.10
30304;DHT22;17112;48.636;10.152;2023-09-19T13:41:13;26.20;45.40
30304;DHT22;17112;48.636;10.152;2023-09-19T13:43:39;26.20;44.80
30304;DHT22;17112;48.636;10.152;2023-09-19T13:46:05;26.30;44.50
30304;DHT22;17112;48.636;10.152;2023-09-19T13:48:33;26.40;44.30
30304;DHT22;17112;48.636;10.152;2023-09-19T13:51:02;26.40;43.50
30304;DHT22;17112;48.636;10.152;2023-09-19T13:53:27;26.40;43.60
30304;DHT22;17112;48.636;10.152;2023-09-19T13:55:53;26.40;43.10
30304;DHT22;17112;48.636;10.152;2023-09-19T13:58:19;26.40;42.80
30304;DHT22;17112;48.636;10.152;2023-09-19T14:00:46;26.30;42.40
30304;DHT22;17112;48.636;10.152;2023-09-19T14:03:12;26.20;43.20
30304;DHT22;17112;48.636;10.152;2023-09-19T14:05:38;26.10;43.10
30304;DHT22;17112;48.636;10.152;2023-09-19T14:08:04;26.00;43.20
30304;DHT22;17112;48.636;10.152;2023-09-19T14:10:30;26.10;43.50
30304;DHT22;17112;48.636;10.152;2023-09-19T14:12:57;26.10;43.60
30304;DHT22;17112;48.636;10.152;2023-09-19T14:15:26;26.20;44.10
30304;DHT22;17112;48.636;10.152;2023-09-19T14:17:57;26.30;43.70
30304;DHT22;17112;48.636;10.152;2023-09-19T14:20:23;26.40;43.10
30304;DHT22;17112;48.636;10.152;2023-09-19T14:22:48;26.50;43.20
30304;DHT22;17112;48.636;10.152;2023-09-19T14:25:14;26.60;43.20
30304;DHT22;17112;48.636;10.152;2023-09-19T14:27:40;26.70;43.40
30304;DHT22;17112;48.636;10.152;2023-09-19T14:30:07;26.80;41.70
30304;DHT22;17112;48.636;10.152;2023-09-19T14:32:33;26.90;41.60
30304;DHT22;17112;48.636;10.152;2023-09-19T14:34:59;26.90;41.10
30304;DHT22;17112;48.636;10.152;2023-09-19T14:37:24;26.90;41.30
30304;DHT22;17112;48.636;10.152;2023-09-19T14:39:50;26.90;42.30
30304;DHT22;17112;48.636;10.152;2023-09-19T14:42:16;27.00;42.10
30304;DHT22;17112;48.636;10.152;2023-09-19T14:44:46;27.10;42.10
30304;DHT22;17112;48.636;10.152;2023-09-19T14:47:14;27.20;41.50
30304;DHT22;17112;48.636;10.152;2023-09-19T14:49:39;27.30;40.90
30304;DHT22;17112;48.636;10.152;2023-09-19T14:52:09;27.40;40.20
30304;DHT22;17112;48.636;10.152;2023-09-19T14:54:36;27.40;40.10
30304;DHT22;17112;48.636;10.152;2023-09-19T14:57:04;27.40;41.20
30304;DHT22;17112;48.636;10.152;2023-09-19T14:59:33;27.50;41.20
30304;DHT22;17112;48.636;10.152;2023-09-19T15:02:02;27.60;40.30
30304;DHT22;17112;48.636;10.152;2023-09-19T15:04:29;27.70;40.40
30304;DHT22;17112;48.636;10.152;2023-09-19T15:06:55;27.80;40.70
30304;DHT22;17112;48.636;10.152;2023-09-19T15:09:24;27.80;39.80
30304;DHT22;17112;48.636;10.152;2023-09-19T15:11:55;27.80;38.50
30304;DHT22;17112;48.636;10.152;2023-09-19T15:14:21;27.70;39.50
30304;DHT22;17112;48.636;10.152;2023-09-19T15:16:48;27.70;39.30
30304;DHT22;17112;48.636;10.152;2023-09-19T15:19:14;27.70;38.90
30304;DHT22;17112;48.636;10.152;2023-09-19T15:21:41;27.70;39.40
30304;DHT22;17112;48.636;10.152;2023-09-19T15:24:07;27.60;39.70
30304;DHT22;17112;48.636;10.152;2023-09-19T15:26:38;27.60;40.20
30304;DHT22;17112;48.636;10.152;2023-09-19T15:29:07;27.70;39.80
30304;DHT22;17112;48.636;10.152;2023-09-19T15:31:35;27.80;40.00
30304;DHT22;17112;48.636;10.152;2023-09-19T15:34:02;27.90;40.20
30304;DHT22;17112;48.636;10.152;2023-09-19T15:36:28;28.10;40.00
30304;DHT22;17112;48.636;10.152;2023-09-19T15:41:26;28.40;39.10
30304;DHT22;17112;48.636;10.152;2023-09-19T15:43:52;28.50;39.20
30304;DHT22;17112;48.636;10.152;2023-09-19T15:46:19;28.60;38.90
30304;DHT22;17112;48.636;10.152;2023-09-19T15:48:45;28.70;38.90
30304;DHT22;17112;48.636;10.152;2023-09-19T15:51:11;28.80;38.50
30304;DHT22;17112;48.636;10.152;2023-09-19T15:53:46;28.80;38.70
30304;DHT22;17112;48.636;10.152;2023-09-19T15:56:12;29.00;38.10
30304;DHT22;17112;48.636;10.152;2023-09-19T15:58:46;29.20;39.10
30304;DHT22;17112;48.636;10.152;2023-09-19T16:01:12;29.40;38.10
30304;DHT22;17112;48.636;10.152;2023-09-19T16:03:42;29.60;38.00
30304;DHT22;17112;48.636;10.152;2023-09-19T16:06:13;29.70;37.50